Time;durP1;ratioP1;P1;durP2;ratioP2;P2;SDS_P1;SDS_P2;PMS_P1;PMS_P2;Temp;Humidity;BMP_temperature;BMP_pressure;BME280_temperature;BME280_humidity;BME280_pressure;Samples;Min_cycle;Max_cycle;Signal;HPM_P1;HPM_P2
2023/06/10 00:00:00;;;;;;;9.63;2.55;;;;;;;23.26;28.09;99681.66;5055189;28;20495;-66
2023/06/10 00:02:27;;;;;;;9.57;2.58;;;;;;;23.10;28.33;99685.88;5022161;28;20438;-64
2023/06/10 00:04:53;;;;;;;4.15;2.60;;;;;;;22.93;28.59;99671.41;5038610;28;20059;-64
2023/06/10 00:07:19;;;;;;;7.40;2.85;;;;;;;22.85;28.69;99669.03;5055042;28;20040;-64
2023/06/10 00:09:45;;;;;;;10.45;2.90;;;;;;;22.80;28.62;99681.66;5005166;28;20044;-64
2023/06/10 00:12:12;;;;;;;4.80;2.65;;;;;;;22.73;28.78;99664.69;5022200;28;20048;-64
2023/06/10 00:14:40;;;;;;;5.05;2.55;;;;;;;22.77;29.03;99671.31;5021624;28;20070;-65
2023/06/10 00:17:08;;;;;;;2.67;2.20;;;;;;;22.42;29.72;99673.13;5072335;28;20406;-64
2023/06/10 00:19:36;;;;;;;8.40;2.45;;;;;;;22.34;29.75;99671.56;5022009;28;20039;-65
2023/06/10 00:22:05;;;;;;;6.88;2.03;;;;;;;22.49;29.71;99671.97;5021571;28;20060;-65
2023/06/10 00:24:31;;;;;;;4.88;2.00;;;;;;;22.19;30.06;99670.38;5005333;28;20041;-66
2023/06/10 00:26:57;;;;;;;4.55;2.33;;;;;;;22.01;30.27;99657.75;5002118;28;20110;-64
2023/06/10 00:29:23;;;;;;;3.35;2.20;;;;;;;22.16;29.99;99678.94;5018038;28;20071;-64
2023/06/10 00:31:49;;;;;;;3.47;2.22;;;;;;;21.95;30.49;99672.19;5050949;28;20049;-64
2023/06/10 00:34:16;;;;;;;7.82;2.22;;;;;;;21.89;30.48;99683.94;5034465;28;20052;-64
2023/06/10 00:36:43;;;;;;;4.50;2.40;;;;;;;21.83;30.34;99684.00;5034216;28;20465;-64
2023/06/10 00:39:08;;;;;;;5.07;2.00;;;;;;;21.72;30.80;99688.28;5034476;28;20048;-65
2023/06/10 00:41:36;;;;;;;6.72;2.17;;;;;;;21.73;30.70;99692.63;5018044;28;20041;-64
2023/06/10 00:44:02;;;;;;;4.95;2.17;;;;;;;21.73;30.83;99696.16;5001886;28;20432;-64
2023/06/10 00:46:29;;;;;;;4.05;1.80;;;;;;;21.69;30.83;99699.56;5051366;28;20044;-64
2023/06/10 00:48:56;;;;;;;2.60;1.98;;;;;;;21.75;30.89;99698.69;5050715;28;20049;-64
2023/06/10 00:51:22;;;;;;;6.38;1.90;;;;;;;21.73;30.66;99699.94;5050899;28;20048;-64
2023/06/10 00:53:48;;;;;;;2.28;2.03;;;;;;;21.65;30.75;99698.34;5017879;28;20099;-65
2023/06/10 00:56:15;;;;;;;3.20;2.08;;;;;;;21.71;30.68;99697.47;5017876;28;20488;-65
2023/06/10 00:58:41;;;;;;;4.05;2.10;;;;;;;21.68;30.71;99703.28;5034573;28;20049;-64
2023/06/10 01:01:07;;;;;;;3.22;2.08;;;;;;;21.63;30.77;99706.69;5017776;28;20037;-65
2023/06/10 01:03:36;;;;;;;5.78;1.95;;;;;;;21.73;30.89;99716.97;5018189;28;20048;-64
2023/06/10 01:06:05;;;;;;;4.77;2.07;;;;;;;22.13;30.77;99723.50;5018801;28;20048;-65
2023/06/10 01:08:52;;;;;;;8.93;2.20;;;;;;;22.34;30.50;99739.22;5034144;28;20045;-64
2023/06/10 01:11:21;;;;;;;4.47;2.25;;;;;;;22.28;30.47;99725.81;5001691;28;20049;-64
2023/06/10 01:13:51;;;;;;;3.35;2.00;;;;;;;22.29;30.56;99730.16;5018136;28;20123;-65
2023/06/10 01:16:19;;;;;;;3.33;1.90;;;;;;;22.25;30.59;99732.50;5018027;28;20052;-64
2023/06/10 01:18:45;;;;;;;5.72;2.00;;;;;;;22.17;30.38;99737.41;5034019;28;20048;-64
2023/06/10 01:21:24;;;;;;;4.25;2.15;;;;;;;22.55;30.21;99744.16;5017749;28;20041;-65
2023/06/10 01:23:52;;;;;;;3.78;2.30;;;;;;;22.43;30.44;99742.44;5034426;28;20060;-65
2023/06/10 01:26:22;;;;;;;3.15;2.03;;;;;;;22.43;30.69;99745.13;5017601;28;20056;-65
2023/06/10 01:28:53;;;;;;;4.50;1.90;;;;;;;22.51;30.43;99742.13;5050394;28;20611;-64
2023/06/10 01:31:41;;;;;;;5.05;2.30;;;;;;;22.67;30.40;99750.41;5001622;28;20420;-64
2023/06/10 01:34:10;;;;;;;6.32;2.10;;;;;;;22.49;30.36;99747.75;5016285;28;20052;-64
2023/06/10 01:36:36;;;;;;;4.22;2.15;;;;;;;22.42;30.56;99749.72;4999954;28;20048;-65
2023/06/10 01:39:04;;;;;;;2.97;1.80;;;;;;;22.49;30.59;99755.03;5016816;28;20067;-65
2023/06/10 01:41:31;;;;;;;3.78;2.00;;;;;;;22.38;30.92;99753.13;5016649;28;20036;-64
2023/06/10 01:43:57;;;;;;;3.83;2.22;;;;;;;22.22;31.00;99760.00;5032910;28;20041;-65
2023/06/10 01:46:24;;;;;;;6.25;2.10;;;;;;;22.48;30.53;99751.50;5018581;28;20043;-64
2023/06/10 01:48:50;;;;;;;3.30;1.98;;;;;;;22.19;30.83;99763.19;5036468;28;20056;-64
2023/06/10 01:51:16;;;;;;;6.10;2.25;;;;;;;22.25;30.76;99762.25;5020170;28;20032;-64
2023/06/10 01:53:42;;;;;;;9.35;2.30;;;;;;;22.10;30.94;99761.84;5019914;28;20091;-64
2023/06/10 01:56:08;;;;;;;6.70;2.03;;;;;;;22.02;30.83;99764.06;5019877;28;20085;-65
2023/06/10 01:58:34;;;;;;;6.32;2.17;;;;;;;22.00;31.17;99767.00;5003798;28;20037;-64
2023/06/10 02:01:00;;;;;;;6.35;1.95;;;;;;;21.90;31.04;99771.28;5020039;28;20041;-64
2023/06/10 02:03:26;;;;;;;2.40;1.85;;;;;;;22.04;30.88;99781.72;5036308;28;20045;-64
2023/06/10 02:05:51;;;;;;;6.97;2.35;;;;;;;22.15;30.81;99788.22;5004663;28;20075;-64
2023/06/10 02:08:17;;;;;;;7.15;2.40;;;;;;;22.02;31.02;99791.91;5037032;28;20452;-64
2023/06/10 02:10:43;;;;;;;7.00;1.90;;;;;;;22.24;30.84;99789.53;5037191;28;20091;-65
2023/06/10 02:13:10;;;;;;;5.75;1.95;;;;;;;22.13;31.03;99791.16;5020875;28;20045;-64
2023/06/10 02:15:37;;;;;;;4.97;2.10;;;;;;;22.10;31.17;99791.59;5037331;28;20071;-65
2023/06/10 02:18:04;;;;;;;6.53;2.30;;;;;;;22.15;31.03;99790.91;5037310;28;20055;-64
2023/06/10 02:20:29;;;;;;;9.55;1.95;;;;;;;22.10;31.27;99798.88;5020299;28;20139;-65
2023/06/10 02:22:57;;;;;;;3.72;2.17;;;;;;;22.23;31.37;99798.72;5004722;28;20489;-64
2023/06/10 02:25:24;;;;;;;6.43;2.20;;;;;;;22.23;31.19;99794.16;5053776;28;20114;-65
2023/06/10 02:27:50;;;;;;;3.05;2.00;;;;;;;22.04;31.38;99800.63;5024181;28;20054;-64
2023/06/10 02:30:17;;;;;;;15.15;2.30;;;;;;;22.07;31.38;99804.75;5040115;28;20062;-64
2023/06/10 02:32:47;;;;;;;9.30;2.17;;;;;;;21.99;31.43;99786.97;5023819;28;20046;-64
2023/06/10 02:35:15;;;;;;;3.13;2.00;;;;;;;22.02;31.47;99791.91;5024090;28;20438;-65
2023/06/10 02:37:41;;;;;;;4.72;2.20;;;;;;;21.98;31.48;99798.84;5040290;28;20089;-64
2023/06/10 02:40:08;;;;;;;5.38;1.98;;;;;;;21.99;31.76;99794.28;5040271;28;20044;-65
2023/06/10 02:42:34;;;;;;;8.55;2.25;;;;;;;21.90;31.47;99788.34;5023936;28;20068;-64
2023/06/10 02:45:01;;;;;;;4.95;1.95;;;;;;;21.99;31.48;99803.19;5023690;28;20127;-64
2023/06/10 02:47:39;;;;;;;6.35;2.28;;;;;;;22.03;31.55;99800.88;5024917;28;20064;-64
2023/06/10 02:50:06;;;;;;;5.57;2.10;;;;;;;21.86;31.58;99800.66;5040392;28;20492;-64
2023/06/10 02:52:38;;;;;;;2.33;1.77;;;;;;;21.78;31.41;99802.84;5057758;28;20055;-64
2023/06/10 02:55:07;;;;;;;5.75;2.30;;;;;;;21.92;31.78;99804.34;5023977;28;20078;-65
2023/06/10 02:57:33;;;;;;;7.57;2.50;;;;;;;21.52;31.71;99799.38;5022110;28;20036;-65
2023/06/10 03:00:02;;;;;;;6.43;2.30;;;;;;;21.53;32.32;99802.88;5023357;28;20049;-65
2023/06/10 03:02:31;;;;;;;5.20;1.90;;;;;;;21.50;32.03;99798.75;5007602;28;20476;-64
2023/06/10 03:04:57;;;;;;;3.97;2.22;;;;;;;21.43;32.02;99802.59;5039588;28;20054;-64
2023/06/10 03:07:24;;;;;;;4.72;2.30;;;;;;;21.45;32.11;99798.59;5039797;28;20051;-64
2023/06/10 03:09:52;;;;;;;4.03;1.73;;;;;;;21.48;31.96;99810.84;5023236;28;20058;-64
2023/06/10 03:12:19;;;;;;;8.32;2.25;;;;;;;21.46;32.23;99821.06;5006916;28;20076;-64
2023/06/10 03:14:47;;;;;;;4.28;1.90;;;;;;;21.45;31.70;99816.69;5040052;28;20366;-64
2023/06/10 03:17:13;;;;;;;4.03;1.88;;;;;;;21.51;31.74;99818.50;5056009;28;20055;-65
2023/06/10 03:19:41;;;;;;;6.13;2.10;;;;;;;21.48;31.90;99816.25;5023264;28;20552;-64
2023/06/10 03:22:12;;;;;;;4.10;2.03;;;;;;;21.80;31.61;99831.31;5023054;28;20044;-65
2023/06/10 03:24:50;;;;;;;5.57;2.05;;;;;;;21.40;31.69;99830.06;5024233;28;20105;-64
2023/06/10 03:27:17;;;;;;;4.22;2.00;;;;;;;21.48;31.84;99830.56;5023225;28;20068;-64
2023/06/10 03:29:46;;;;;;;2.67;1.83;;;;;;;21.49;31.64;99829.53;5007407;28;20078;-64
2023/06/10 03:32:12;;;;;;;5.88;2.00;;;;;;;21.59;31.58;99826.31;5022974;28;20075;-65
2023/06/10 03:34:41;;;;;;;4.57;2.08;;;;;;;21.64;31.68;99819.19;5039564;28;20063;-65
2023/06/10 03:37:08;;;;;;;4.97;1.80;;;;;;;21.57;31.76;99836.53;5023136;28;20396;-65
2023/06/10 03:39:35;;;;;;;4.88;1.60;;;;;;;21.65;31.42;99838.91;5038869;28;20072;-65
2023/06/10 03:42:02;;;;;;;6.50;1.80;;;;;;;21.86;31.52;99833.13;5039111;28;20075;-64
2023/06/10 03:44:30;;;;;;;7.53;1.98;;;;;;;21.75;31.42;99833.88;5022753;28;20055;-64
2023/06/10 03:46:57;;;;;;;5.80;1.67;;;;;;;21.81;31.08;99838.38;5038687;28;20123;-64
2023/06/10 03:49:26;;;;;;;2.53;1.77;;;;;;;21.75;31.17;99839.28;5038733;28;20105;-64
2023/06/10 03:51:55;;;;;;;4.03;1.70;;;;;;;21.85;30.77;99836.06;5023425;28;20075;-64
2023/06/10 03:54:22;;;;;;;3.55;2.08;;;;;;;21.90;31.00;99839.72;5022168;28;20126;-64
2023/06/10 03:56:50;;;;;;;7.40;1.92;;;;;;;21.89;30.61;99840.78;5038570;28;20055;-65
2023/06/10 03:59:16;;;;;;;6.03;1.77;;;;;;;21.88;31.03;99855.34;5022632;28;20044;-64
2023/06/10 04:01:43;;;;;;;8.60;1.70;;;;;;;21.97;30.64;99851.31;5038817;28;20040;-64
2023/06/10 04:04:10;;;;;;;5.70;1.60;;;;;;;21.96;30.26;99852.34;5022436;28;20049;-64
2023/06/10 04:06:37;;;;;;;2.92;1.80;;;;;;;21.95;30.27;99850.69;5038536;28;20048;-64
2023/06/10 04:09:03;;;;;;;4.78;1.77;;;;;;;21.96;30.56;99857.75;5038675;28;20075;-64
2023/06/10 04:11:30;;;;;;;5.25;1.63;;;;;;;21.99;30.46;99860.00;5006211;28;20090;-64
2023/06/10 04:13:57;;;;;;;4.35;1.88;;;;;;;21.97;30.34;99861.28;5006345;28;20143;-65
2023/06/10 04:16:24;;;;;;;6.32;1.52;;;;;;;22.04;30.46;99862.84;5005841;28;20048;-64
2023/06/10 04:18:51;;;;;;;6.65;1.70;;;;;;;22.07;30.50;99858.84;5021999;28;20051;-65
2023/06/10 04:21:18;;;;;;;7.47;1.88;;;;;;;22.11;30.35;99852.78;5022532;28;20072;-64
2023/06/10 04:23:44;;;;;;;6.03;1.77;;;;;;;22.16;30.22;99866.44;5038272;28;20045;-64
2023/06/10 04:26:12;;;;;;;7.95;1.75;;;;;;;22.31;30.13;99863.38;5021815;28;20052;-64
2023/06/10 04:28:39;;;;;;;5.60;1.88;;;;;;;22.25;30.14;99853.44;5021675;28;20102;-64
2023/06/10 04:31:05;;;;;;;5.28;1.85;;;;;;;22.30;30.04;99858.97;5038056;28;20040;-65
2023/06/10 04:33:31;;;;;;;4.85;1.60;;;;;;;22.42;29.99;99863.41;5021414;28;20052;-65
2023/06/10 04:36:00;;;;;;;4.93;1.60;;;;;;;22.47;29.67;99865.41;5038197;28;20064;-64
2023/06/10 04:38:30;;;;;;;3.00;1.40;;;;;;;22.53;29.46;99862.66;5038267;28;20059;-65
2023/06/10 04:40:58;;;;;;;8.57;1.65;;;;;;;22.58;29.01;99862.81;5037848;28;20047;-64
2023/06/10 04:43:25;;;;;;;4.85;1.70;;;;;;;22.70;29.01;99869.09;5037664;28;20044;-64
2023/06/10 04:45:51;;;;;;;3.53;1.55;;;;;;;22.66;29.00;99875.19;5021607;28;20147;-64
2023/06/10 04:48:17;;;;;;;4.53;1.40;;;;;;;22.68;28.98;99879.31;5021219;28;20444;-66
2023/06/10 04:50:42;;;;;;;4.00;1.38;;;;;;;22.75;29.01;99877.34;5005287;28;20055;-64
2023/06/10 04:53:10;;;;;;;4.57;1.45;;;;;;;22.85;28.84;99880.31;5021539;28;20400;-64
2023/06/10 04:55:38;;;;;;;3.28;1.38;;;;;;;22.90;28.56;99875.03;5022345;28;20037;-65
2023/06/10 04:58:04;;;;;;;3.75;1.60;;;;;;;22.99;28.61;99880.94;5037653;28;20044;-64
2023/06/10 05:00:30;;;;;;;6.47;1.55;;;;;;;22.98;28.42;99882.84;5037595;28;20456;-65
2023/06/10 05:02:56;;;;;;;7.68;1.60;;;;;;;23.05;28.74;99886.25;5054211;28;20040;-64
2023/06/10 05:05:22;;;;;;;5.20;2.30;;;;;;;23.07;28.65;99889.56;5021496;28;20480;-64
2023/06/10 05:07:48;;;;;;;3.25;1.33;;;;;;;23.11;28.24;99887.22;5004892;28;20139;-64
2023/06/10 05:10:14;;;;;;;4.18;1.88;;;;;;;23.15;28.57;99885.69;5021311;28;20162;-65
2023/06/10 05:12:41;;;;;;;2.03;1.38;;;;;;;23.33;28.00;99898.34;5021219;28;20044;-66
2023/06/10 05:15:08;;;;;;;2.45;1.30;;;;;;;23.44;27.94;99892.94;5021603;28;20140;-65
2023/06/10 05:17:36;;;;;;;5.22;1.63;;;;;;;23.44;28.16;99892.09;5037616;28;20045;-65
2023/06/10 05:20:03;;;;;;;7.50;1.52;;;;;;;23.58;27.85;99886.22;5038086;28;20097;-64
2023/06/10 05:22:31;;;;;;;8.52;1.60;;;;;;;23.40;27.91;99885.50;5041759;28;20072;-65
2023/06/10 05:24:57;;;;;;;4.63;1.35;;;;;;;23.52;27.56;99899.91;5025124;28;20119;-64
2023/06/10 05:27:24;;;;;;;6.85;1.50;;;;;;;23.59;27.56;99901.44;5041261;28;20417;-65
2023/06/10 05:29:51;;;;;;;5.43;1.48;;;;;;;23.65;27.34;99902.41;5024988;28;20048;-65
2023/06/10 05:32:18;;;;;;;6.20;1.50;;;;;;;23.77;27.17;99897.78;5058336;28;20131;-65
2023/06/10 05:34:44;;;;;;;7.18;1.67;;;;;;;23.79;26.85;99917.34;5008834;28;20365;-65
2023/06/10 05:37:10;;;;;;;8.23;1.60;;;;;;;23.83;26.96;99900.38;5041704;28;20040;-65
2023/06/10 05:39:39;;;;;;;2.05;1.42;;;;;;;23.98;27.16;99903.47;5041205;28;20160;-64
2023/06/10 05:42:06;;;;;;;4.03;1.42;;;;;;;24.20;27.00;99918.03;5025112;28;20076;-64
2023/06/10 05:44:33;;;;;;;5.43;1.60;;;;;;;24.11;26.81;99913.25;5040766;28;20530;-64
2023/06/10 05:46:59;;;;;;;3.70;1.45;;;;;;;24.06;26.36;99926.69;5024722;28;20041;-64
2023/06/10 05:49:25;;;;;;;4.45;1.88;;;;;;;24.14;26.22;99919.00;5040892;28;20090;-65
2023/06/10 05:51:52;;;;;;;5.82;1.85;;;;;;;24.25;26.04;99914.59;5024510;28;20143;-65
2023/06/10 05:54:19;;;;;;;6.32;1.60;;;;;;;24.41;26.02;99913.88;5025310;28;20427;-64
2023/06/10 05:56:45;;;;;;;9.88;1.88;;;;;;;24.47;26.05;99908.31;5041479;28;20056;-64
2023/06/10 05:59:13;;;;;;;9.52;1.75;;;;;;;24.67;25.68;99922.31;5041004;28;20036;-64
2023/06/10 06:01:39;;;;;;;8.48;1.52;;;;;;;24.53;25.58;99918.19;5024891;28;20055;-64
2023/06/10 06:04:06;;;;;;;4.65;1.42;;;;;;;24.60;25.55;99909.91;5041350;28;20396;-65
2023/06/10 06:06:32;;;;;;;4.00;1.45;;;;;;;24.61;25.25;99915.09;5040811;28;20480;-65
2023/06/10 06:08:58;;;;;;;6.28;2.88;;;;;;;24.70;25.43;99913.69;5024455;28;20040;-64
2023/06/10 06:11:25;;;;;;;4.35;1.83;;;;;;;24.56;25.12;99922.31;5041126;28;20044;-64
2023/06/10 06:13:52;;;;;;;5.82;2.50;;;;;;;24.91;25.06;99911.34;5024791;28;20094;-65
2023/06/10 06:16:18;;;;;;;4.05;1.90;;;;;;;24.74;25.02;99924.88;5008416;28;20040;-65
2023/06/10 06:18:44;;;;;;;5.22;2.05;;;;;;;25.01;24.67;99919.66;4996605;28;20046;-65
2023/06/10 06:21:10;;;;;;;7.15;2.30;;;;;;;25.32;24.56;99930.84;4980439;28;20050;-65
2023/06/10 06:23:36;;;;;;;8.13;2.28;;;;;;;25.67;23.85;99927.88;4980055;28;20151;-64
2023/06/10 06:26:01;;;;;;;8.02;2.15;;;;;;;25.78;23.79;99927.81;4980293;28;20061;-65
2023/06/10 06:28:31;;;;;;;8.13;1.90;;;;;;;25.98;23.43;99922.66;4963976;28;20053;-65
2023/06/10 06:30:57;;;;;;;6.28;1.92;;;;;;;26.25;22.97;99939.09;4980873;28;20050;-64
2023/06/10 06:33:23;;;;;;;5.03;1.45;;;;;;;26.41;22.29;99932.78;4980227;28;20053;-65
2023/06/10 06:35:49;;;;;;;9.63;2.03;;;;;;;26.59;22.27;99942.53;4980371;28;20146;-65
2023/06/10 06:38:15;;;;;;;5.53;1.77;;;;;;;26.94;22.22;99943.00;4980352;28;20569;-65
2023/06/10 06:40:42;;;;;;;5.25;1.77;;;;;;;27.25;21.70;99945.78;4996510;28;20064;-65
2023/06/10 06:43:08;;;;;;;5.25;2.03;;;;;;;27.42;21.58;99946.47;4948152;28;20378;-65
2023/06/10 06:45:57;;;;;;;4.80;1.70;;;;;;;27.75;21.03;99948.09;4982839;28;20061;-65
2023/06/10 06:48:24;;;;;;;9.02;2.25;;;;;;;27.73;21.06;99947.53;5012439;28;20050;-66
2023/06/10 06:50:50;;;;;;;8.10;2.22;;;;;;;27.68;20.90;99952.94;5021821;28;20059;-65
2023/06/10 06:53:19;;;;;;;5.03;1.73;;;;;;;27.78;20.64;99959.34;5024311;28;20102;-64
2023/06/10 06:55:45;;;;;;;3.17;1.35;;;;;;;27.81;20.61;99955.25;5039587;28;20152;-65
2023/06/10 06:58:11;;;;;;;4.78;1.30;;;;;;;27.70;20.33;99943.44;5039696;28;20135;-65
2023/06/10 07:00:37;;;;;;;8.30;1.65;;;;;;;27.84;20.38;99949.25;5023051;28;20162;-65
2023/06/10 07:03:03;;;;;;;9.95;1.55;;;;;;;27.80;20.12;99953.63;5023238;28;20052;-64
2023/06/10 07:05:30;;;;;;;5.80;1.60;;;;;;;27.79;20.16;99951.94;5023071;28;20380;-64
2023/06/10 07:07:56;;;;;;;6.45;1.52;;;;;;;27.73;20.18;99951.09;5040236;28;20090;-64
2023/06/10 07:10:24;;;;;;;3.47;2.10;;;;;;;27.90;20.71;99953.69;5039764;28;20060;-65
2023/06/10 07:12:51;;;;;;;4.75;2.00;;;;;;;27.89;20.33;99958.31;5039671;28;20381;-64
2023/06/10 07:15:16;;;;;;;10.65;1.88;;;;;;;28.04;19.98;99957.63;5023007;28;20133;-65
2023/06/10 07:17:43;;;;;;;5.60;1.60;;;;;;;28.34;19.62;99965.97;5022786;28;20151;-65
2023/06/10 07:20:11;;;;;;;8.82;2.00;;;;;;;28.60;19.44;99953.31;5038898;28;20040;-64
2023/06/10 07:22:38;;;;;;;5.45;1.40;;;;;;;28.88;18.83;99958.28;5006613;28;20102;-65
2023/06/10 07:25:06;;;;;;;7.25;1.63;;;;;;;29.32;18.60;99951.31;5006866;28;20077;-65
2023/06/10 07:27:32;;;;;;;8.60;1.73;;;;;;;29.70;18.22;99959.00;5038879;28;20072;-64
2023/06/10 07:29:58;;;;;;;8.48;1.77;;;;;;;30.50;17.77;99950.66;5022739;28;20052;-64
2023/06/10 07:32:24;;;;;;;1.92;1.58;;;;;;;31.21;17.28;99961.25;5022844;28;20048;-65
2023/06/10 07:34:50;;;;;;;9.88;1.42;;;;;;;31.67;16.40;99970.81;5039053;28;20120;-65
2023/06/10 07:37:16;;;;;;;3.45;1.40;;;;;;;31.48;16.54;99972.59;5006302;28;20048;-65
2023/06/10 07:39:43;;;;;;;5.22;1.30;;;;;;;31.27;16.43;99979.31;5005977;28;20070;-65
2023/06/10 07:42:09;;;;;;;4.45;1.60;;;;;;;32.26;15.76;99979.63;5022271;28;20492;-65
2023/06/10 07:44:35;;;;;;;3.20;1.58;;;;;;;34.30;14.47;99982.41;5021710;28;20040;-65
2023/06/10 07:47:01;;;;;;;3.28;1.30;;;;;;;36.65;12.55;99975.97;5022179;28;20098;-65
2023/06/10 07:49:27;;;;;;;3.08;1.40;;;;;;;38.47;11.08;99980.81;5005910;28;20055;-65
2023/06/10 07:51:54;;;;;;;4.32;1.60;;;;;;;37.97;11.42;99977.06;5022435;28;20127;-65
2023/06/10 07:54:20;;;;;;;8.40;1.90;;;;;;;36.65;12.09;99966.84;5022256;28;20423;-65
2023/06/10 07:56:47;;;;;;;4.78;1.25;;;;;;;36.83;12.24;99987.91;5005844;28;20048;-66
2023/06/10 07:59:14;;;;;;;7.15;1.30;;;;;;;36.59;12.01;99996.63;5021971;28;20052;-65
2023/06/10 08:01:40;;;;;;;7.28;1.80;;;;;;;36.21;12.30;99983.59;5022090;28;20049;-65
2023/06/10 08:04:06;;;;;;;6.50;1.55;;;;;;;35.27;12.66;99986.47;5038539;28;20110;-65
2023/06/10 08:06:32;;;;;;;4.00;1.50;;;;;;;35.06;12.88;99982.50;5022087;28;20131;-65
2023/06/10 08:08:59;;;;;;;4.05;1.50;;;;;;;37.02;11.62;99986.50;5021727;28;20564;-65
2023/06/10 08:11:28;;;;;;;4.18;1.40;;;;;;;39.55;9.89;99986.34;5022516;28;20071;-65
2023/06/10 08:13:54;;;;;;;4.93;1.33;;;;;;;40.72;9.30;99988.53;5038870;28;20044;-65
2023/06/10 08:16:21;;;;;;;5.60;1.70;;;;;;;39.44;9.85;99996.25;5021934;28;20075;-66
2023/06/10 08:18:47;;;;;;;3.05;1.00;;;;;;;37.92;10.20;99993.84;5021500;28;20040;-65
2023/06/10 08:21:13;;;;;;;2.47;1.75;;;;;;;36.42;11.23;99982.72;5005392;28;20094;-65
2023/06/10 08:23:39;;;;;;;10.93;1.40;;;;;;;35.16;11.88;99979.53;5021777;28;20071;-65
2023/06/10 08:26:05;;;;;;;6.60;1.08;;;;;;;34.21;12.73;99987.81;5038099;28;20495;-65
2023/06/10 08:28:31;;;;;;;4.82;1.20;;;;;;;33.44;13.19;99983.09;5021393;28;20040;-65
2023/06/10 08:30:58;;;;;;;1.90;0.90;;;;;;;32.84;13.25;99986.66;5038407;28;20048;-65
2023/06/10 08:33:24;;;;;;;3.42;1.20;;;;;;;32.41;13.31;99980.28;5005504;28;20358;-65
2023/06/10 08:35:50;;;;;;;5.38;1.65;;;;;;;33.34;13.12;99980.44;5021467;28;20043;-65
2023/06/10 08:38:16;;;;;;;9.70;1.27;;;;;;;36.21;10.91;99987.16;5005122;28;20040;-66
2023/06/10 08:40:42;;;;;;;1.73;1.17;;;;;;;39.46;8.95;100002.31;5054259;28;20166;-65
2023/06/10 08:43:13;;;;;;;2.85;1.13;;;;;;;41.10;8.05;99997.34;5005044;28;20044;-66
2023/06/10 08:45:41;;;;;;;4.32;1.10;;;;;;;41.05;8.08;100006.72;5037750;28;20055;-65
2023/06/10 08:48:07;;;;;;;11.45;1.55;;;;;;;42.16;7.58;100004.03;5021181;28;20048;-66
2023/06/10 08:50:38;;;;;;;2.70;1.10;;;;;;;43.64;6.75;100008.47;5054681;28;20127;-66
2023/06/10 08:53:05;;;;;;;1.73;0.88;;;;;;;44.63;5.93;100010.00;5021401;28;20049;-66
2023/06/10 08:55:40;;;;;;;8.00;0.88;;;;;;;44.22;6.14;100010.84;5036617;28;20468;-66
2023/06/10 08:58:06;;;;;;;5.00;1.00;;;;;;;43.31;6.42;100010.91;5037549;28;20040;-66
2023/06/10 09:00:34;;;;;;;3.50;1.20;;;;;;;43.85;6.25;100009.69;5021065;28;20078;-66
2023/06/10 09:03:02;;;;;;;6.05;0.90;;;;;;;43.68;6.41;100009.34;5037912;28;20124;-67
2023/06/10 09:05:29;;;;;;;2.40;1.13;;;;;;;42.32;7.07;100004.91;5021337;28;20067;-66
2023/06/10 09:07:57;;;;;;;3.47;1.10;;;;;;;41.88;6.96;99994.88;5021824;28;20369;-66
2023/06/10 09:10:23;;;;;;;9.63;1.17;;;;;;;42.17;6.84;100005.66;5021081;28;20134;-66
2023/06/10 09:12:49;;;;;;;7.32;0.85;;;;;;;40.65;7.83;100000.22;5004727;28;20136;-66
2023/06/10 09:15:17;;;;;;;4.72;1.00;;;;;;;39.22;8.40;99995.78;5021046;28;20059;-65
2023/06/10 09:17:44;;;;;;;6.00;1.10;;;;;;;37.72;9.19;100011.19;5021659;28;20464;-65
2023/06/10 09:20:10;;;;;;;6.57;1.10;;;;;;;36.53;9.97;99994.31;5004904;28;20051;-65
2023/06/10 09:22:38;;;;;;;2.55;1.20;;;;;;;37.07;9.83;99986.34;5037350;28;20488;-66
2023/06/10 09:25:07;;;;;;;4.80;1.30;;;;;;;39.65;7.92;100010.16;5021353;28;20037;-66
2023/06/10 09:27:44;;;;;;;5.32;1.00;;;;;;;41.69;6.67;100010.31;5017768;28;20049;-66
2023/06/10 09:30:11;;;;;;;6.95;1.42;;;;;;;42.06;6.37;100007.38;5017508;28;20139;-66
2023/06/10 09:32:40;;;;;;;6.45;1.70;;;;;;;42.67;5.86;100011.38;5017640;28;20036;-66
2023/06/10 09:35:09;;;;;;;8.25;1.40;;;;;;;44.44;5.40;100023.25;5001176;28;20477;-66
2023/06/10 09:37:38;;;;;;;3.90;0.93;;;;;;;46.10;4.39;100018.84;5033803;28;20095;-66
2023/06/10 09:40:10;;;;;;;3.10;1.00;;;;;;;47.33;3.63;100012.25;5017670;28;20073;-67
2023/06/10 09:42:38;;;;;;;4.10;1.00;;;;;;;48.26;3.34;100014.19;5001404;28;20774;-66
2023/06/10 09:45:06;;;;;;;5.85;1.20;;;;;;;49.13;3.04;100006.97;5001228;28;20041;-67
2023/06/10 09:47:33;;;;;;;3.28;1.00;;;;;;;49.62;2.71;100013.25;5001736;28;20070;-68
2023/06/10 09:50:00;;;;;;;1.17;0.75;;;;;;;49.91;2.50;100016.75;5017591;28;20059;-66
2023/06/10 09:52:29;;;;;;;3.35;0.82;;;;;;;49.90;2.83;100015.16;5001276;28;20045;-67
2023/06/10 09:55:01;;;;;;;2.28;0.70;;;;;;;47.41;3.23;100010.31;5001054;28;20045;-67
2023/06/10 09:57:30;;;;;;;2.90;0.80;;;;;;;44.41;4.47;100002.38;5001295;28;20133;-66
2023/06/10 09:59:56;;;;;;;;;;;;;;;42.14;5.47;100004.41;5017599;28;20049;-66
2023/06/10 10:02:22;;;;;;;3.72;1.05;;;;;;;39.68;6.45;99995.56;5017230;28;19920;-66
2023/06/10 10:04:48;;;;;;;4.40;1.10;;;;;;;38.34;7.33;100001.28;5000903;28;20063;-66
2023/06/10 10:07:14;;;;;;;2.85;0.93;;;;;;;39.85;6.92;99999.03;5002888;28;20103;-66
2023/06/10 10:09:41;;;;;;;1.98;1.08;;;;;;;42.64;5.73;100003.72;5021228;28;20049;-66
2023/06/10 10:12:11;;;;;;;10.05;1.00;;;;;;;44.93;4.90;100009.25;5004423;28;20041;-66
2023/06/10 10:14:38;;;;;;;1.42;0.77;;;;;;;45.48;4.41;100008.47;5020811;28;20037;-66
2023/06/10 10:17:11;;;;;;;4.53;1.10;;;;;;;45.72;4.45;100010.75;5004694;28;20135;-66
2023/06/10 10:19:53;;;;;;;3.40;1.10;;;;;;;46.90;4.15;100007.56;5020641;28;20366;-69
2023/06/10 10:22:33;;;;;;;7.00;1.02;;;;;;;47.50;3.64;100022.78;5020670;28;20451;-66
2023/06/10 10:25:08;;;;;;;6.00;1.00;;;;;;;47.76;3.44;100020.91;5004157;28;20075;-67
2023/06/10 10:27:36;;;;;;;6.00;1.30;;;;;;;45.27;4.49;100008.16;5037066;28;20092;-66
2023/06/10 10:30:08;;;;;;;5.23;0.93;;;;;;;43.53;4.79;100007.44;5004367;28;20405;-66
2023/06/10 10:32:52;;;;;;;3.83;0.90;;;;;;;42.30;5.44;100010.00;5021115;28;20045;-67
2023/06/10 10:35:23;;;;;;;3.92;1.00;;;;;;;42.97;5.21;100001.34;5053340;28;20049;-66
2023/06/10 10:37:52;;;;;;;2.83;1.00;;;;;;;44.03;5.05;100002.47;5053678;28;20052;-66
2023/06/10 10:40:19;;;;;;;2.90;1.00;;;;;;;44.94;4.28;100005.25;5020424;28;20044;-66
2023/06/10 10:42:45;;;;;;;1.67;1.05;;;;;;;45.74;3.64;99997.97;5003964;28;20065;-66
2023/06/10 10:45:11;;;;;;;2.53;0.80;;;;;;;46.04;3.38;99989.50;5020070;28;20051;-66
2023/06/10 10:47:39;;;;;;;3.67;0.93;;;;;;;46.38;3.75;100002.28;5019862;28;20469;-67
2023/06/10 10:50:17;;;;;;;6.43;1.10;;;;;;;46.42;3.89;100005.13;5020660;28;20392;-67
2023/06/10 10:52:56;;;;;;;3.67;1.25;;;;;;;45.00;4.67;100001.75;5036612;28;20041;-66
2023/06/10 10:55:23;;;;;;;4.95;1.20;;;;;;;43.19;5.09;99997.88;5004085;28;20050;-66
2023/06/10 10:58:03;;;;;;;9.52;0.88;;;;;;;41.08;6.25;99991.28;5020080;28;20492;-65
2023/06/10 11:00:37;;;;;;;6.07;1.80;;;;;;;39.44;6.89;99990.69;5020081;28;20077;-66
2023/06/10 11:03:08;;;;;;;2.95;1.80;;;;;;;38.98;7.38;99995.59;5052976;28;20053;-66
2023/06/10 11:05:38;;;;;;;8.45;1.17;;;;;;;38.28;7.43;99980.41;5003985;28;20047;-66
2023/06/10 11:08:05;;;;;;;4.70;1.00;;;;;;;37.26;8.00;99988.03;5036562;28;20562;-65
2023/06/10 11:10:32;;;;;;;7.28;1.50;;;;;;;36.71;8.20;99987.69;5019660;28;20053;-66
2023/06/10 11:12:59;;;;;;;5.13;1.25;;;;;;;36.34;8.30;99989.03;5036080;28;20127;-65
2023/06/10 11:15:28;;;;;;;3.63;1.08;;;;;;;36.47;8.57;99987.31;5019682;28;20140;-65
2023/06/10 11:18:21;;;;;;;6.40;1.10;;;;;;;36.72;8.95;99990.16;5002554;28;20068;-65
2023/06/10 11:20:50;;;;;;;3.08;1.08;;;;;;;36.41;9.04;99994.13;5036057;28;20041;-65
2023/06/10 11:23:29;;;;;;;3.33;1.80;;;;;;;35.88;9.19;99991.38;5035871;28;20051;-65
2023/06/10 11:26:26;;;;;;;3.60;1.42;;;;;;;34.95;9.38;99994.13;5035792;28;20562;-65
2023/06/10 11:28:54;;;;;;;3.58;1.48;;;;;;;34.18;10.01;99988.41;5035812;28;20136;-65
2023/06/10 11:31:27;;;;;;;4.03;1.30;;;;;;;34.29;10.50;100000.06;5052266;28;20183;-65
2023/06/10 11:33:54;;;;;;;3.33;1.10;;;;;;;34.11;10.29;99995.47;5019362;28;20079;-65
2023/06/10 11:36:21;;;;;;;2.83;1.45;;;;;;;34.01;10.28;99999.22;5052076;28;20045;-65